sensor_id;sensor_type;location;lat;lon;timestamp;pressure;altitude;pressure_sealevel;temperature;humidity
61109;BME280;46995;55.740;37.402;2023-03-22T00:00:25;98902.47;;;5.23;78.58
61109;BME280;46995;55.740;37.402;2023-03-22T00:02:53;98913.66;;;5.36;78.76
61109;BME280;46995;55.740;37.402;2023-03-22T00:05:19;98929.38;;;5.36;78.77
61109;BME280;46995;55.740;37.402;2023-03-22T00:07:45;98922.13;;;5.28;78.85
61109;BME280;46995;55.740;37.402;2023-03-22T00:10:15;98905.63;;;5.15;78.46
61109;BME280;46995;55.740;37.402;2023-03-22T00:12:41;98905.25;;;5.08;78.64
61109;BME280;46995;55.740;37.402;2023-03-22T00:15:07;98890.00;;;5.02;78.90
61109;BME280;46995;55.740;37.402;2023-03-22T00:17:34;98915.38;;;5.13;79.11
61109;BME280;46995;55.740;37.402;2023-03-22T00:20:02;98915.84;;;5.07;79.33
61109;BME280;46995;55.740;37.402;2023-03-22T00:22:33;98907.34;;;5.03;79.50
61109;BME280;46995;55.740;37.402;2023-03-22T00:24:59;98907.59;;;5.00;79.30
61109;BME280;46995;55.740;37.402;2023-03-22T00:27:25;98901.13;;;4.93;79.18
61109;BME280;46995;55.740;37.402;2023-03-22T00:29:51;98890.47;;;4.96;79.39
61109;BME280;46995;55.740;37.402;2023-03-22T00:32:17;98904.88;;;5.02;79.07
61109;BME280;46995;55.740;37.402;2023-03-22T00:34:43;98917.13;;;5.01;79.16
61109;BME280;46995;55.740;37.402;2023-03-22T00:37:08;98937.28;;;5.12;79.37
61109;BME280;46995;55.740;37.402;2023-03-22T00:39:34;98928.28;;;5.03;79.59
61109;BME280;46995;55.740;37.402;2023-03-22T00:42:03;98918.50;;;4.94;79.92
61109;BME280;46995;55.740;37.402;2023-03-22T00:44:29;98933.66;;;5.02;79.46
61109;BME280;46995;55.740;37.402;2023-03-22T00:46:55;98932.81;;;5.01;79.67
61109;BME280;46995;55.740;37.402;2023-03-22T00:49:21;98944.63;;;5.07;79.66
61109;BME280;46995;55.740;37.402;2023-03-22T00:51:47;98945.81;;;5.14;79.47
61109;BME280;46995;55.740;37.402;2023-03-22T00:54:13;98955.25;;;5.17;79.78
61109;BME280;46995;55.740;37.402;2023-03-22T00:56:42;98951.56;;;5.19;79.65
61109;BME280;46995;55.740;37.402;2023-03-22T00:59:13;98963.59;;;5.22;79.97
61109;BME280;46995;55.740;37.402;2023-03-22T01:01:40;98978.91;;;5.39;79.53
61109;BME280;46995;55.740;37.402;2023-03-22T01:04:06;98961.00;;;5.22;79.17
61109;BME280;46995;55.740;37.402;2023-03-22T01:06:32;98955.97;;;5.19;79.30
61109;BME280;46995;55.740;37.402;2023-03-22T01:08:58;98954.31;;;5.18;79.66
61109;BME280;46995;55.740;37.402;2023-03-22T01:11:25;98987.22;;;5.33;80.00
61109;BME280;46995;55.740;37.402;2023-03-22T01:13:53;98971.47;;;5.22;79.70
61109;BME280;46995;55.740;37.402;2023-03-22T01:16:23;98978.22;;;5.24;79.78
61109;BME280;46995;55.740;37.402;2023-03-22T01:18:48;98989.09;;;5.31;79.64
61109;BME280;46995;55.740;37.402;2023-03-22T01:21:15;98990.97;;;5.29;79.77
61109;BME280;46995;55.740;37.402;2023-03-22T01:23:41;98976.69;;;5.22;80.09
61109;BME280;46995;55.740;37.402;2023-03-22T01:26:07;98951.59;;;4.95;80.07
61109;BME280;46995;55.740;37.402;2023-03-22T01:28:33;98984.38;;;5.12;80.55
61109;BME280;46995;55.740;37.402;2023-03-22T01:31:01;98990.97;;;5.18;80.54
61109;BME280;46995;55.740;37.402;2023-03-22T01:33:27;98990.47;;;5.13;80.32
61109;BME280;46995;55.740;37.402;2023-03-22T01:35:53;98997.84;;;5.19;79.94
61109;BME280;46995;55.740;37.402;2023-03-22T01:38:19;98994.94;;;5.10;79.87
61109;BME280;46995;55.740;37.402;2023-03-22T01:40:58;99000.44;;;5.07;80.16
61109;BME280;46995;55.740;37.402;2023-03-22T01:43:25;98985.59;;;4.95;80.79
61109;BME280;46995;55.740;37.402;2023-03-22T01:45:52;99016.16;;;5.19;80.64
61109;BME280;46995;55.740;37.402;2023-03-22T01:48:25;99022.97;;;5.21;79.96
61109;BME280;46995;55.740;37.402;2023-03-22T01:51:11;99014.13;;;5.11;80.64
61109;BME280;46995;55.740;37.402;2023-03-22T01:54:02;99029.03;;;5.22;80.37
61109;BME280;46995;55.740;37.402;2023-03-22T01:56:32;99013.03;;;5.13;80.28
61109;BME280;46995;55.740;37.402;2023-03-22T01:59:00;99025.41;;;5.11;80.05
61109;BME280;46995;55.740;37.402;2023-03-22T02:01:35;98979.47;;;4.71;80.55
61109;BME280;46995;55.740;37.402;2023-03-22T02:04:11;98988.38;;;4.81;80.84
61109;BME280;46995;55.740;37.402;2023-03-22T02:06:40;99006.72;;;4.92;80.09
61109;BME280;46995;55.740;37.402;2023-03-22T02:09:13;98993.38;;;4.84;79.89
61109;BME280;46995;55.740;37.402;2023-03-22T02:11:51;99000.16;;;4.87;80.29
61109;BME280;46995;55.740;37.402;2023-03-22T02:26:38;99052.81;;;5.19;80.51
61109;BME280;46995;55.740;37.402;2023-03-22T02:29:29;99047.56;;;5.19;80.37
61109;BME280;46995;55.740;37.402;2023-03-22T02:46:06;99074.56;;;4.95;81.45
61109;BME280;46995;55.740;37.402;2023-03-22T02:48:40;99054.47;;;4.83;81.89
61109;BME280;46995;55.740;37.402;2023-03-22T02:51:16;99065.03;;;4.82;81.79
61109;BME280;46995;55.740;37.402;2023-03-22T02:53:51;99057.31;;;4.80;81.48
61109;BME280;46995;55.740;37.402;2023-03-22T02:56:23;99066.19;;;4.78;81.34
61109;BME280;46995;55.740;37.402;2023-03-22T02:58:52;99077.00;;;4.73;81.90
61109;BME280;46995;55.740;37.402;2023-03-22T03:03:54;99054.63;;;4.56;81.95
61109;BME280;46995;55.740;37.402;2023-03-22T03:06:23;99105.84;;;4.84;81.64
61109;BME280;46995;55.740;37.402;2023-03-22T03:08:54;99072.31;;;4.65;81.72
61109;BME280;46995;55.740;37.402;2023-03-22T03:11:23;99103.84;;;4.88;81.82
61109;BME280;46995;55.740;37.402;2023-03-22T03:13:49;99063.41;;;4.68;81.29
61109;BME280;46995;55.740;37.402;2023-03-22T03:16:19;99079.94;;;4.81;81.60
61109;BME280;46995;55.740;37.402;2023-03-22T03:19:12;99106.47;;;5.00;81.49
61109;BME280;46995;55.740;37.402;2023-03-22T03:24:36;99107.50;;;4.98;80.61
61109;BME280;46995;55.740;37.402;2023-03-22T03:27:25;99070.72;;;4.63;81.20
61109;BME280;46995;55.740;37.402;2023-03-22T03:30:00;99093.63;;;4.72;80.89
61109;BME280;46995;55.740;37.402;2023-03-22T03:32:35;99093.63;;;4.72;81.32
61109;BME280;46995;55.740;37.402;2023-03-22T03:35:28;99105.34;;;4.79;81.23
61109;BME280;46995;55.740;37.402;2023-03-22T03:38:05;99115.19;;;4.76;81.39
61109;BME280;46995;55.740;37.402;2023-03-22T03:40:37;99109.13;;;4.75;81.18
61109;BME280;46995;55.740;37.402;2023-03-22T03:43:05;99083.78;;;4.50;81.49
61109;BME280;46995;55.740;37.402;2023-03-22T03:45:33;99114.97;;;4.66;81.37
61109;BME280;46995;55.740;37.402;2023-03-22T03:48:04;99119.25;;;4.67;81.67
61109;BME280;46995;55.740;37.402;2023-03-22T03:50:31;99126.59;;;4.62;81.92
61109;BME280;46995;55.740;37.402;2023-03-22T03:53:04;99091.56;;;4.39;81.83
61109;BME280;46995;55.740;37.402;2023-03-22T03:55:40;99103.47;;;4.43;82.36
61109;BME280;46995;55.740;37.402;2023-03-22T03:58:08;99152.22;;;4.69;81.91
61109;BME280;46995;55.740;37.402;2023-03-22T04:00:48;99134.56;;;4.60;82.10
61109;BME280;46995;55.740;37.402;2023-03-22T04:03:37;99144.19;;;4.60;81.87
61109;BME280;46995;55.740;37.402;2023-03-22T04:06:12;99126.16;;;4.43;81.71
61109;BME280;46995;55.740;37.402;2023-03-22T04:08:43;99112.34;;;4.41;82.12
61109;BME280;46995;55.740;37.402;2023-03-22T04:11:11;99145.81;;;4.61;81.57
61109;BME280;46995;55.740;37.402;2023-03-22T04:13:38;99155.69;;;4.70;81.41
61109;BME280;46995;55.740;37.402;2023-03-22T04:16:10;99121.38;;;4.49;81.36
61109;BME280;46995;55.740;37.402;2023-03-22T04:18:37;99142.28;;;4.62;81.02
61109;BME280;46995;55.740;37.402;2023-03-22T04:21:06;99161.97;;;4.80;81.19
61109;BME280;46995;55.740;37.402;2023-03-22T04:23:42;99172.00;;;4.86;81.10
61109;BME280;46995;55.740;37.402;2023-03-22T04:26:16;99169.91;;;4.79;80.56
61109;BME280;46995;55.740;37.402;2023-03-22T04:28:55;99131.38;;;4.55;80.41
61109;BME280;46995;55.740;37.402;2023-03-22T04:31:24;99174.28;;;4.78;80.31
61109;BME280;46995;55.740;37.402;2023-03-22T04:33:56;99186.75;;;4.75;79.89
61109;BME280;46995;55.740;37.402;2023-03-22T04:36:35;99194.78;;;4.72;79.39
61109;BME280;46995;55.740;37.402;2023-03-22T04:39:23;99181.81;;;4.57;79.72
61109;BME280;46995;55.740;37.402;2023-03-22T04:41:59;99170.78;;;4.40;79.98
61109;BME280;46995;55.740;37.402;2023-03-22T04:44:26;99119.00;;;4.07;79.98
61109;BME280;46995;55.740;37.402;2023-03-22T04:46:52;99188.09;;;4.55;79.93
61109;BME280;46995;55.740;37.402;2023-03-22T04:49:19;99140.28;;;4.28;79.07
61109;BME280;46995;55.740;37.402;2023-03-22T04:51:45;99180.31;;;4.41;78.95
61109;BME280;46995;55.740;37.402;2023-03-22T04:54:27;99215.94;;;4.68;79.33
61109;BME280;46995;55.740;37.402;2023-03-22T04:57:01;99205.03;;;4.62;79.13
61109;BME280;46995;55.740;37.402;2023-03-22T04:59:33;99165.56;;;4.40;78.71
61109;BME280;46995;55.740;37.402;2023-03-22T05:02:02;99188.69;;;4.46;79.02
61109;BME280;46995;55.740;37.402;2023-03-22T05:04:35;99210.47;;;4.59;78.51
61109;BME280;46995;55.740;37.402;2023-03-22T05:07:10;99174.69;;;4.47;78.36
61109;BME280;46995;55.740;37.402;2023-03-22T05:09:51;99173.97;;;4.45;77.94
61109;BME280;46995;55.740;37.402;2023-03-22T05:12:17;99161.31;;;4.39;78.04
61109;BME280;46995;55.740;37.402;2023-03-22T05:14:52;99206.72;;;4.63;77.51
61109;BME280;46995;55.740;37.402;2023-03-22T05:17:22;99165.56;;;4.40;77.40
61109;BME280;46995;55.740;37.402;2023-03-22T05:19:49;99220.53;;;4.65;77.20
61109;BME280;46995;55.740;37.402;2023-03-22T05:22:17;99247.13;;;4.84;76.84
61109;BME280;46995;55.740;37.402;2023-03-22T05:24:47;99216.13;;;4.53;76.46
61109;BME280;46995;55.740;37.402;2023-03-22T05:27:18;99239.47;;;4.68;76.20
61109;BME280;46995;55.740;37.402;2023-03-22T05:29:56;99210.97;;;4.39;76.00
61109;BME280;46995;55.740;37.402;2023-03-22T05:32:30;99228.13;;;4.43;75.95
61109;BME280;46995;55.740;37.402;2023-03-22T05:34:57;99216.59;;;4.33;75.67
61109;BME280;46995;55.740;37.402;2023-03-22T05:37:31;99245.50;;;4.44;75.72
61109;BME280;46995;55.740;37.402;2023-03-22T05:39:58;99244.75;;;4.42;75.76
61109;BME280;46995;55.740;37.402;2023-03-22T05:42:32;99282.41;;;4.52;75.38
61109;BME280;46995;55.740;37.402;2023-03-22T05:45:00;99253.66;;;4.12;75.25
61109;BME280;46995;55.740;37.402;2023-03-22T05:47:26;99264.81;;;4.14;75.68
61109;BME280;46995;55.740;37.402;2023-03-22T05:50:12;99287.34;;;4.30;75.36
61109;BME280;46995;55.740;37.402;2023-03-22T05:52:38;99230.75;;;3.89;75.38
61109;BME280;46995;55.740;37.402;2023-03-22T05:55:31;99258.03;;;4.12;75.63
61109;BME280;46995;55.740;37.402;2023-03-22T05:57:59;99258.28;;;4.21;74.71
61109;BME280;46995;55.740;37.402;2023-03-22T06:00:27;99263.09;;;4.28;74.46
61109;BME280;46995;55.740;37.402;2023-03-22T06:03:22;99266.06;;;4.36;74.09
61109;BME280;46995;55.740;37.402;2023-03-22T06:05:59;99266.94;;;4.49;73.70
61109;BME280;46995;55.740;37.402;2023-03-22T06:08:37;99312.22;;;4.76;73.26
61109;BME280;46995;55.740;37.402;2023-03-22T06:11:04;99308.84;;;4.87;73.74
61109;BME280;46995;55.740;37.402;2023-03-22T06:13:30;99284.97;;;4.66;73.25
61109;BME280;46995;55.740;37.402;2023-03-22T06:16:01;99284.78;;;4.82;72.19
61109;BME280;46995;55.740;37.402;2023-03-22T06:18:28;99269.25;;;4.66;72.17
61109;BME280;46995;55.740;37.402;2023-03-22T06:21:01;99274.31;;;4.69;72.04
61109;BME280;46995;55.740;37.402;2023-03-22T06:23:27;99310.94;;;4.82;72.48
61109;BME280;46995;55.740;37.402;2023-03-22T06:25:53;99320.25;;;4.73;72.11
61109;BME280;46995;55.740;37.402;2023-03-22T06:28:19;99298.56;;;4.71;71.82
61109;BME280;46995;55.740;37.402;2023-03-22T06:30:51;99303.81;;;4.71;71.50
61109;BME280;46995;55.740;37.402;2023-03-22T06:33:17;99297.41;;;4.62;71.76
61109;BME280;46995;55.740;37.402;2023-03-22T06:35:48;99286.63;;;4.67;71.67
61109;BME280;46995;55.740;37.402;2023-03-22T06:38:23;99283.97;;;4.81;70.53
61109;BME280;46995;55.740;37.402;2023-03-22T06:40:50;99293.72;;;5.04;70.09
61109;BME280;46995;55.740;37.402;2023-03-22T06:43:16;99302.84;;;5.37;69.97
61109;BME280;46995;55.740;37.402;2023-03-22T06:45:46;99285.66;;;5.45;68.81
61109;BME280;46995;55.740;37.402;2023-03-22T06:48:15;99307.56;;;5.70;69.00
61109;BME280;46995;55.740;37.402;2023-03-22T06:50:48;99289.97;;;5.59;68.04
61109;BME280;46995;55.740;37.402;2023-03-22T06:53:19;99300.13;;;5.51;68.13
61109;BME280;46995;55.740;37.402;2023-03-22T06:55:45;99287.47;;;5.32;68.86
61109;BME280;46995;55.740;37.402;2023-03-22T06:58:17;99297.19;;;5.18;68.78
61109;BME280;46995;55.740;37.402;2023-03-22T07:00:43;99296.56;;;5.01;69.34
61109;BME280;46995;55.740;37.402;2023-03-22T07:03:09;99297.91;;;4.94;69.83
61109;BME280;46995;55.740;37.402;2023-03-22T07:05:48;99316.44;;;4.91;69.76
61109;BME280;46995;55.740;37.402;2023-03-22T07:08:15;99298.91;;;4.79;70.14
61109;BME280;46995;55.740;37.402;2023-03-22T07:10:50;99306.69;;;4.81;69.75
61109;BME280;46995;55.740;37.402;2023-03-22T07:13:18;99298.16;;;4.77;70.30
61109;BME280;46995;55.740;37.402;2023-03-22T07:15:45;99318.63;;;4.97;69.84
61109;BME280;46995;55.740;37.402;2023-03-22T07:18:38;99302.91;;;4.97;68.90
61109;BME280;46995;55.740;37.402;2023-03-22T07:21:08;99317.41;;;5.16;68.70
61109;BME280;46995;55.740;37.402;2023-03-22T07:23:36;99326.81;;;5.31;67.90
61109;BME280;46995;55.740;37.402;2023-03-22T07:26:07;99318.66;;;5.23;68.08
61109;BME280;46995;55.740;37.402;2023-03-22T07:28:38;99325.47;;;5.38;67.99
61109;BME280;46995;55.740;37.402;2023-03-22T07:31:08;99338.88;;;5.59;67.06
61109;BME280;46995;55.740;37.402;2023-03-22T07:34:12;99305.25;;;5.40;66.52
61109;BME280;46995;55.740;37.402;2023-03-22T07:36:57;99338.84;;;5.71;66.12
61109;BME280;46995;55.740;37.402;2023-03-22T07:39:25;99296.56;;;5.52;66.47
61109;BME280;46995;55.740;37.402;2023-03-22T07:41:52;99352.69;;;5.99;65.46
61109;BME280;46995;55.740;37.402;2023-03-22T07:44:24;99316.66;;;5.89;65.02
61109;BME280;46995;55.740;37.402;2023-03-22T07:47:12;99303.13;;;5.95;65.13
61109;BME280;46995;55.740;37.402;2023-03-22T07:49:45;99303.91;;;6.09;64.77
61109;BME280;46995;55.740;37.402;2023-03-22T07:52:18;99315.50;;;6.30;64.62
61109;BME280;46995;55.740;37.402;2023-03-22T07:54:44;99310.47;;;6.27;64.47
61109;BME280;46995;55.740;37.402;2023-03-22T07:57:11;99332.13;;;6.42;64.12
61109;BME280;46995;55.740;37.402;2023-03-22T07:59:43;99322.09;;;6.35;64.27
61109;BME280;46995;55.740;37.402;2023-03-22T08:02:12;99332.22;;;6.40;63.59
61109;BME280;46995;55.740;37.402;2023-03-22T08:04:44;99321.31;;;6.46;63.55
61109;BME280;46995;55.740;37.402;2023-03-22T08:07:22;99302.41;;;6.54;63.44
61109;BME280;46995;55.740;37.402;2023-03-22T08:09:52;99282.75;;;6.59;62.24
61109;BME280;46995;55.740;37.402;2023-03-22T08:12:29;99306.09;;;6.86;61.94
61109;BME280;46995;55.740;37.402;2023-03-22T08:15:07;99288.56;;;6.87;61.61
61109;BME280;46995;55.740;37.402;2023-03-22T08:17:34;99343.34;;;7.26;62.40
61109;BME280;46995;55.740;37.402;2023-03-22T08:20:01;99321.78;;;6.99;61.97
61109;BME280;46995;55.740;37.402;2023-03-22T08:22:45;99291.22;;;6.98;61.14
61109;BME280;46995;55.740;37.402;2023-03-22T08:25:20;99310.50;;;7.32;60.68
61109;BME280;46995;55.740;37.402;2023-03-22T08:27:52;99308.72;;;7.43;60.21
61109;BME280;46995;55.740;37.402;2023-03-22T08:30:18;99319.44;;;7.29;60.29
61109;BME280;46995;55.740;37.402;2023-03-22T08:32:47;99336.06;;;7.41;60.39
61109;BME280;46995;55.740;37.402;2023-03-22T08:35:13;99330.69;;;7.31;60.49
61109;BME280;46995;55.740;37.402;2023-03-22T08:37:40;99345.69;;;7.18;60.58
61109;BME280;46995;55.740;37.402;2023-03-22T08:40:11;99339.91;;;7.02;60.91
61109;BME280;46995;55.740;37.402;2023-03-22T08:42:44;99356.88;;;7.09;61.00
61109;BME280;46995;55.740;37.402;2023-03-22T08:45:10;99341.88;;;6.87;61.02
61109;BME280;46995;55.740;37.402;2023-03-22T08:47:47;99320.53;;;6.92;60.87
61109;BME280;46995;55.740;37.402;2023-03-22T08:50:17;99318.78;;;7.03;60.74
61109;BME280;46995;55.740;37.402;2023-03-22T08:53:14;99319.41;;;7.18;59.88
61109;BME280;46995;55.740;37.402;2023-03-22T08:55:46;99317.81;;;6.93;60.22
61109;BME280;46995;55.740;37.402;2023-03-22T08:58:13;99369.75;;;7.01;60.80
61109;BME280;46995;55.740;37.402;2023-03-22T09:00:41;99355.50;;;6.92;60.94
61109;BME280;46995;55.740;37.402;2023-03-22T09:03:56;99364.69;;;7.21;60.90
61109;BME280;46995;55.740;37.402;2023-03-22T09:06:25;99331.84;;;7.16;60.19
61109;BME280;46995;55.740;37.402;2023-03-22T09:08:55;99326.50;;;7.29;59.45
61109;BME280;46995;55.740;37.402;2023-03-22T09:11:23;99278.59;;;7.14;59.23
61109;BME280;46995;55.740;37.402;2023-03-22T09:13:49;99330.03;;;7.62;58.60
61109;BME280;46995;55.740;37.402;2023-03-22T09:16:17;99352.34;;;8.01;58.13
61109;BME280;46995;55.740;37.402;2023-03-22T09:18:52;99371.84;;;8.21;57.29
61109;BME280;46995;55.740;37.402;2023-03-22T09:21:21;99348.88;;;8.12;57.29
61109;BME280;46995;55.740;37.402;2023-03-22T09:23:51;99359.66;;;8.09;58.09
61109;BME280;46995;55.740;37.402;2023-03-22T09:26:24;99317.22;;;7.80;57.95
61109;BME280;46995;55.740;37.402;2023-03-22T09:28:51;99325.25;;;7.90;58.11
61109;BME280;46995;55.740;37.402;2023-03-22T09:31:17;99344.22;;;8.16;58.15
61109;BME280;46995;55.740;37.402;2023-03-22T09:33:43;99319.72;;;8.04;57.84
61109;BME280;46995;55.740;37.402;2023-03-22T09:36:09;99319.97;;;8.01;57.76
61109;BME280;46995;55.740;37.402;2023-03-22T09:38:40;99337.41;;;8.13;57.57
61109;BME280;46995;55.740;37.402;2023-03-22T09:41:29;99345.03;;;8.27;56.64
61109;BME280;46995;55.740;37.402;2023-03-22T09:44:02;99359.66;;;8.09;56.83
61109;BME280;46995;55.740;37.402;2023-03-22T09:46:36;99345.06;;;7.72;57.40
61109;BME280;46995;55.740;37.402;2023-03-22T09:49:09;99335.97;;;7.64;58.16
61109;BME280;46995;55.740;37.402;2023-03-22T09:51:53;99346.50;;;7.76;57.53
61109;BME280;46995;55.740;37.402;2023-03-22T09:54:32;99358.47;;;7.80;57.27
61109;BME280;46995;55.740;37.402;2023-03-22T09:57:03;99361.56;;;7.96;57.18
61109;BME280;46995;55.740;37.402;2023-03-22T10:10:27;99310.63;;;8.30;54.71
61109;BME280;46995;55.740;37.402;2023-03-22T10:13:05;99340.69;;;8.60;54.53
61109;BME280;46995;55.740;37.402;2023-03-22T10:15:42;99338.59;;;8.74;54.29
61109;BME280;46995;55.740;37.402;2023-03-22T10:18:19;99353.94;;;9.01;53.84
61109;BME280;46995;55.740;37.402;2023-03-22T10:21:00;99328.72;;;8.99;54.03
61109;BME280;46995;55.740;37.402;2023-03-22T10:23:43;99317.97;;;9.11;53.18
61109;BME280;46995;55.740;37.402;2023-03-22T10:26:32;99361.50;;;9.47;53.17
61109;BME280;46995;55.740;37.402;2023-03-22T10:29:01;99319.31;;;9.26;52.82
61109;BME280;46995;55.740;37.402;2023-03-22T10:31:29;99328.72;;;9.40;52.57
61109;BME280;46995;55.740;37.402;2023-03-22T10:34:17;99280.06;;;9.23;52.66
61109;BME280;46995;55.740;37.402;2023-03-22T10:36:45;99325.50;;;9.37;52.47
61109;BME280;46995;55.740;37.402;2023-03-22T10:39:23;99370.09;;;9.70;53.20
61109;BME280;46995;55.740;37.402;2023-03-22T10:41:53;99321.66;;;9.20;52.98
61109;BME280;46995;55.740;37.402;2023-03-22T10:44:22;99263.50;;;8.59;53.07
61109;BME280;46995;55.740;37.402;2023-03-22T10:46:49;99349.00;;;8.76;54.04
61109;BME280;46995;55.740;37.402;2023-03-22T10:49:31;99366.75;;;8.74;54.99
61109;BME280;46995;55.740;37.402;2023-03-22T10:52:03;99359.59;;;8.54;55.44
61109;BME280;46995;55.740;37.402;2023-03-22T10:54:32;99335.34;;;8.17;55.94
61109;BME280;46995;55.740;37.402;2023-03-22T10:56:58;99353.66;;;8.18;56.44
61109;BME280;46995;55.740;37.402;2023-03-22T10:59:44;99379.97;;;8.18;57.84
61109;BME280;46995;55.740;37.402;2023-03-22T11:02:28;99368.75;;;7.94;58.38
61109;BME280;46995;55.740;37.402;2023-03-22T11:05:01;99378.53;;;8.03;58.55
61109;BME280;46995;55.740;37.402;2023-03-22T11:07:37;99381.91;;;8.16;57.59
61109;BME280;46995;55.740;37.402;2023-03-22T11:12:42;99375.19;;;8.12;57.48
61109;BME280;46995;55.740;37.402;2023-03-22T11:15:25;99367.91;;;8.04;57.96
61109;BME280;46995;55.740;37.402;2023-03-22T11:17:56;99334.56;;;7.72;58.31
61109;BME280;46995;55.740;37.402;2023-03-22T11:20:26;99364.69;;;7.90;58.87
61109;BME280;46995;55.740;37.402;2023-03-22T11:22:54;99363.22;;;8.08;59.09
61109;BME280;46995;55.740;37.402;2023-03-22T11:28:18;99377.34;;;8.52;58.44
61109;BME280;46995;55.740;37.402;2023-03-22T11:31:11;99365.56;;;8.67;58.42
61109;BME280;46995;55.740;37.402;2023-03-22T11:33:59;99365.72;;;8.86;58.08
61109;BME280;46995;55.740;37.402;2023-03-22T11:36:28;99369.47;;;9.15;57.84
61109;BME280;46995;55.740;37.402;2023-03-22T11:39:02;99359.06;;;9.34;56.90
61109;BME280;46995;55.740;37.402;2023-03-22T11:41:34;99355.41;;;9.47;56.41
61109;BME280;46995;55.740;37.402;2023-03-22T11:44:03;99351.88;;;9.37;56.34
61109;BME280;46995;55.740;37.402;2023-03-22T11:46:30;99364.31;;;9.34;56.69
61109;BME280;46995;55.740;37.402;2023-03-22T11:49:08;99331.34;;;9.19;56.46
61109;BME280;46995;55.740;37.402;2023-03-22T11:51:39;99351.03;;;9.36;56.32
61109;BME280;46995;55.740;37.402;2023-03-22T11:54:14;99338.88;;;9.24;56.26
61109;BME280;46995;55.740;37.402;2023-03-22T11:56:47;99328.66;;;9.10;56.78
61109;BME280;46995;55.740;37.402;2023-03-22T12:01:59;99352.28;;;9.00;56.98
61109;BME280;46995;55.740;37.402;2023-03-22T12:04:34;99331.66;;;8.84;57.22
61109;BME280;46995;55.740;37.402;2023-03-22T12:07:05;99349.31;;;8.93;57.23
61109;BME280;46995;55.740;37.402;2023-03-22T12:09:40;99356.38;;;8.93;57.16
61109;BME280;46995;55.740;37.402;2023-03-22T12:12:15;99353.28;;;8.88;57.09
61109;BME280;46995;55.740;37.402;2023-03-22T12:14:56;99321.78;;;8.66;57.24
61109;BME280;46995;55.740;37.402;2023-03-22T12:17:55;99355.78;;;8.58;57.82
61109;BME280;46995;55.740;37.402;2023-03-22T12:23:18;99358.44;;;8.02;59.50
61109;BME280;46995;55.740;37.402;2023-03-22T12:31:19;99357.75;;;7.89;60.20
61109;BME280;46995;55.740;37.402;2023-03-22T12:33:48;99354.63;;;8.06;59.79
61109;BME280;46995;55.740;37.402;2023-03-22T12:36:45;99350.56;;;8.35;59.25
61109;BME280;46995;55.740;37.402;2023-03-22T12:42:16;99332.63;;;9.04;57.27
61109;BME280;46995;55.740;37.402;2023-03-22T12:44:46;99322.22;;;9.23;56.16
61109;BME280;46995;55.740;37.402;2023-03-22T12:47:25;99302.81;;;9.45;55.01
61109;BME280;46995;55.740;37.402;2023-03-22T12:50:01;99294.38;;;9.51;54.99
61109;BME280;46995;55.740;37.402;2023-03-22T12:52:35;99299.59;;;9.42;54.51
61109;BME280;46995;55.740;37.402;2023-03-22T12:55:06;99299.72;;;9.40;54.48
61109;BME280;46995;55.740;37.402;2023-03-22T12:57:35;99318.44;;;9.98;53.11
61109;BME280;46995;55.740;37.402;2023-03-22T13:00:12;99300.19;;;9.85;52.89
61109;BME280;46995;55.740;37.402;2023-03-22T13:02:47;99273.28;;;9.51;52.76
61109;BME280;46995;55.740;37.402;2023-03-22T13:05:16;99323.63;;;9.48;53.43
61109;BME280;46995;55.740;37.402;2023-03-22T13:26:34;99311.19;;;8.23;56.09
61109;BME280;46995;55.740;37.402;2023-03-22T13:29:10;99335.25;;;8.40;56.44
61109;BME280;46995;55.740;37.402;2023-03-22T13:31:43;99330.94;;;8.39;56.42
61109;BME280;46995;55.740;37.402;2023-03-22T13:34:19;99328.41;;;8.38;56.43
61109;BME280;46995;55.740;37.402;2023-03-22T13:36:51;99311.94;;;8.25;56.71
61109;BME280;46995;55.740;37.402;2023-03-22T13:39:18;99262.25;;;7.99;56.57
61109;BME280;46995;55.740;37.402;2023-03-22T13:41:48;99288.38;;;8.12;56.31
61109;BME280;46995;55.740;37.402;2023-03-22T13:44:37;99292.13;;;8.09;56.32
61109;BME280;46995;55.740;37.402;2023-03-22T13:47:08;99277.19;;;7.88;56.63
61109;BME280;46995;55.740;37.402;2023-03-22T13:49:59;99314.84;;;8.11;56.47
61109;BME280;46995;55.740;37.402;2023-03-22T13:52:37;99281.25;;;7.81;56.93
61109;BME280;46995;55.740;37.402;2023-03-22T13:55:33;99307.78;;;7.89;56.95
61109;BME280;46995;55.740;37.402;2023-03-22T13:58:01;99275.31;;;7.68;56.95
61109;BME280;46995;55.740;37.402;2023-03-22T14:00:34;99310.06;;;7.93;57.14
61109;BME280;46995;55.740;37.402;2023-03-22T14:03:10;99292.88;;;7.89;57.25
61109;BME280;46995;55.740;37.402;2023-03-22T14:05:37;99290.72;;;7.83;57.31
61109;BME280;46995;55.740;37.402;2023-03-22T14:08:36;99304.78;;;8.04;57.27
61109;BME280;46995;55.740;37.402;2023-03-22T14:14:19;99259.53;;;7.90;56.24
61109;BME280;46995;55.740;37.402;2023-03-22T14:16:56;99260.31;;;7.90;56.01
61109;BME280;46995;55.740;37.402;2023-03-22T14:19:28;99282.56;;;7.97;55.85
61109;BME280;46995;55.740;37.402;2023-03-22T14:22:12;99273.59;;;8.00;55.81
61109;BME280;46995;55.740;37.402;2023-03-22T14:25:16;99254.03;;;7.82;56.21
61109;BME280;46995;55.740;37.402;2023-03-22T14:27:51;99266.19;;;7.94;56.20
61109;BME280;46995;55.740;37.402;2023-03-22T14:33:03;99289.94;;;8.15;55.15
61109;BME280;46995;55.740;37.402;2023-03-22T14:35:38;99269.28;;;7.99;55.49
61109;BME280;46995;55.740;37.402;2023-03-22T14:38:17;99290.91;;;8.02;55.80
61109;BME280;46995;55.740;37.402;2023-03-22T14:40:45;99260.75;;;7.63;55.90
61109;BME280;46995;55.740;37.402;2023-03-22T14:43:21;99290.72;;;7.61;56.53
61109;BME280;46995;55.740;37.402;2023-03-22T14:45:49;99279.34;;;7.38;56.91
61109;BME280;46995;55.740;37.402;2023-03-22T14:48:30;99294.13;;;7.28;56.63
61109;BME280;46995;55.740;37.402;2023-03-22T14:50:57;99245.59;;;6.88;57.07
61109;BME280;46995;55.740;37.402;2023-03-22T14:53:34;99281.69;;;7.08;57.17
61109;BME280;46995;55.740;37.402;2023-03-22T14:56:14;99282.63;;;6.96;57.48